createdAt,value
2018-07-07T00:01:50.793Z,15.00
2018-07-07T00:04:25.312Z,9.33
2018-07-07T00:07:13.165Z,9.57
2018-07-07T00:09:47.512Z,18.80
2018-07-07T00:12:21.874Z,14.47
2018-07-07T00:14:56.125Z,12.30
2018-07-07T00:17:30.316Z,18.57
2018-07-07T00:20:04.593Z,17.00
2018-07-07T00:22:38.778Z,12.87
2018-07-07T00:25:18.242Z,16.03
2018-07-07T00:27:52.470Z,17.07
2018-07-07T00:30:26.848Z,19.20
2018-07-07T00:33:00.976Z,16.73
2018-07-07T00:35:35.175Z,14.00
2018-07-07T00:38:09.349Z,16.37
2018-07-07T00:40:43.510Z,17.73
2018-07-07T00:43:17.675Z,17.30
2018-07-07T00:45:52.856Z,16.07
2018-07-07T00:48:27.055Z,16.70
2018-07-07T00:51:02.206Z,13.57
2018-07-07T00:53:36.447Z,15.90
2018-07-07T00:56:10.612Z,15.90
2018-07-07T00:58:44.811Z,13.07
2018-07-07T01:01:19.042Z,12.87
2018-07-07T01:03:53.237Z,18.87
2018-07-07T01:06:28.907Z,18.17
2018-07-07T01:09:03.123Z,18.03
2018-07-07T01:11:38.276Z,12.93
2018-07-07T01:14:12.654Z,13.23
2018-07-07T01:16:46.824Z,17.87
2018-07-07T01:19:20.976Z,16.70
2018-07-07T01:21:56.182Z,12.70
2018-07-07T01:24:30.436Z,23.17
2018-07-07T01:27:05.257Z,19.87
2018-07-07T01:29:40.350Z,17.70
2018-07-07T01:32:14.508Z,19.50
2018-07-07T01:34:48.711Z,16.33
2018-07-07T01:37:23.902Z,16.73
2018-07-07T01:39:58.475Z,19.13
2018-07-07T01:42:33.219Z,16.10
2018-07-07T01:45:07.464Z,20.37
2018-07-07T01:47:41.798Z,16.37
2018-07-07T01:50:17.068Z,20.07
2018-07-07T01:52:52.228Z,17.23
2018-07-07T01:55:26.760Z,19.03
2018-07-07T01:58:01.923Z,18.37
2018-07-07T02:00:36.588Z,13.23
2018-07-07T02:03:11.180Z,17.40
2018-07-07T02:05:44.878Z,16.93
2018-07-07T02:08:18.553Z,15.83
2018-07-07T02:10:53.759Z,16.27
2018-07-07T02:13:28.500Z,14.25
2018-07-07T02:16:02.857Z,20.02
2018-07-07T02:18:37.068Z,17.30
2018-07-07T02:21:12.301Z,16.07
2018-07-07T02:23:48.042Z,18.20
2018-07-07T02:26:22.250Z,11.87
2018-07-07T02:28:56.383Z,14.17
2018-07-07T02:31:30.586Z,17.30
2018-07-07T02:34:06.447Z,13.15
2018-07-07T02:36:41.195Z,12.55
2018-07-07T02:39:15.336Z,17.20
2018-07-07T02:41:50.117Z,13.95
2018-07-07T02:44:24.808Z,10.00
2018-07-07T02:46:59.013Z,19.83
2018-07-07T02:49:33.273Z,19.80
2018-07-07T02:52:06.997Z,20.23
2018-07-07T02:54:41.161Z,19.23
2018-07-07T02:57:15.991Z,19.92
2018-07-07T02:59:50.754Z,17.32
2018-07-07T03:02:29.759Z,20.08
2018-07-07T03:05:04.752Z,16.20
2018-07-07T03:07:39.974Z,17.63
2018-07-07T03:10:16.325Z,18.92
2018-07-07T03:12:50.537Z,11.40
2018-07-07T03:15:24.707Z,19.07
2018-07-07T03:17:58.927Z,14.37
2018-07-07T03:20:33.075Z,16.83
2018-07-07T03:23:07.283Z,13.57
2018-07-07T03:25:42.230Z,17.80
2018-07-07T03:28:16.515Z,18.87
2018-07-07T03:30:52.052Z,16.27
2018-07-07T03:33:27.836Z,12.45
2018-07-07T03:36:02.551Z,20.62
2018-07-07T03:38:37.300Z,15.40
2018-07-07T03:41:12.043Z,17.73
2018-07-07T03:43:47.853Z,11.78
2018-07-07T03:46:23.609Z,14.83
2018-07-07T03:48:58.475Z,14.65
2018-07-07T03:51:32.689Z,19.62
2018-07-07T03:54:07.514Z,13.95
2018-07-07T03:56:42.273Z,16.60
2018-07-07T03:59:17.013Z,17.05
2018-07-07T04:01:51.794Z,16.15
2018-07-07T04:04:26.113Z,16.40
2018-07-07T04:07:01.336Z,14.25
2018-07-07T04:09:37.124Z,12.58
2018-07-07T04:12:11.877Z,16.20
2018-07-07T04:14:46.620Z,15.38
2018-07-07T04:17:21.314Z,15.80
2018-07-07T04:19:57.140Z,15.30
2018-07-07T04:22:31.992Z,16.95
2018-07-07T04:25:12.385Z,12.45
2018-07-07T04:27:47.190Z,13.03
2018-07-07T04:30:30.001Z,11.35
2018-07-07T04:33:04.941Z,13.50
2018-07-07T04:35:39.699Z,10.63
2018-07-07T04:38:15.470Z,12.45
2018-07-07T04:40:58.024Z,14.45
2018-07-07T04:43:38.216Z,13.43
2018-07-07T04:46:13.088Z,14.83
2018-07-07T04:48:55.944Z,13.70
2018-07-07T04:51:30.806Z,10.58
2018-07-07T04:54:05.633Z,12.03
2018-07-07T04:56:41.411Z,11.40
2018-07-07T04:59:16.286Z,14.03
2018-07-07T05:01:51.008Z,10.82
2018-07-07T05:04:25.758Z,9.95
2018-07-07T05:07:01.910Z,15.03
2018-07-07T05:09:36.836Z,12.35
2018-07-07T05:12:11.553Z,12.20
2018-07-07T05:14:46.352Z,10.38
2018-07-07T05:17:22.139Z,13.30
2018-07-07T05:19:57.004Z,13.98
2018-07-07T05:22:31.737Z,7.65
2018-07-07T05:25:06.542Z,9.63
2018-07-07T05:27:42.381Z,12.65
2018-07-07T05:30:17.055Z,9.40
2018-07-07T05:32:51.812Z,11.35
2018-07-07T05:35:26.537Z,18.45
2018-07-07T05:38:12.238Z,12.53
2018-07-07T05:40:47.043Z,12.05
2018-07-07T05:43:21.800Z,13.25
2018-07-07T05:45:56.640Z,13.65
2018-07-07T05:51:27.287Z,11.30
2018-07-07T05:54:01.585Z,14.95
2018-07-07T05:56:36.376Z,14.80
2018-07-07T05:59:11.120Z,15.13
2018-07-07T06:01:46.811Z,9.13
2018-07-07T06:04:21.588Z,8.78
2018-07-07T06:06:56.330Z,14.20
2018-07-07T06:09:31.133Z,13.10
2018-07-07T06:12:05.988Z,10.00
2018-07-07T06:14:41.180Z,16.32
2018-07-07T06:17:15.897Z,10.82
2018-07-07T06:19:50.698Z,9.90
2018-07-07T06:22:25.456Z,9.45
2018-07-07T06:25:00.280Z,10.35
2018-07-07T06:27:36.088Z,8.50
2018-07-07T06:30:10.859Z,9.43
2018-07-07T06:32:45.596Z,12.80
2018-07-07T06:35:20.356Z,9.53
2018-07-07T06:37:55.094Z,17.65
2018-07-07T06:40:30.943Z,13.78
2018-07-07T06:43:05.670Z,11.80
2018-07-07T06:45:40.459Z,14.20
2018-07-07T06:48:16.256Z,11.60
2018-07-07T06:50:51.004Z,15.40
2018-07-07T06:53:25.259Z,11.22
2018-07-07T06:56:00.027Z,11.08
2018-07-07T06:58:34.781Z,11.48
2018-07-07T07:01:09.070Z,8.35
2018-07-07T07:03:43.755Z,12.63
2018-07-07T07:06:18.563Z,9.65
2018-07-07T07:08:53.322Z,10.20
2018-07-07T07:11:29.115Z,9.23
2018-07-07T07:14:03.924Z,10.98
2018-07-07T07:16:38.689Z,5.05
2018-07-07T07:19:14.425Z,8.08
2018-07-07T07:21:48.679Z,12.25
2018-07-07T07:24:23.379Z,7.20
2018-07-07T07:26:58.407Z,8.53
2018-07-07T07:29:33.136Z,9.85
2018-07-07T07:32:08.911Z,9.90
2018-07-07T07:34:43.599Z,11.12
2018-07-07T07:37:18.396Z,9.25
2018-07-07T07:39:53.136Z,11.12
2018-07-07T07:42:28.892Z,7.00
2018-07-07T07:45:03.814Z,4.92
2018-07-07T07:47:38.896Z,7.80
2018-07-07T07:50:13.636Z,8.00
2018-07-07T07:52:48.619Z,8.05
2018-07-07T07:55:23.494Z,9.60
2018-07-07T07:57:58.279Z,11.43
2018-07-07T08:00:33.007Z,9.50
2018-07-07T08:03:08.351Z,8.00
2018-07-07T08:05:42.590Z,6.50
2018-07-07T08:08:17.348Z,8.93
2018-07-07T08:10:52.100Z,8.35
2018-07-07T08:13:26.892Z,9.18
2018-07-07T08:16:02.642Z,6.30
2018-07-07T08:18:37.479Z,6.67
2018-07-07T08:21:12.220Z,8.20
2018-07-07T08:23:47.960Z,9.68
2018-07-07T08:26:22.677Z,7.75
2018-07-07T08:28:58.460Z,7.35
2018-07-07T08:31:33.216Z,8.60
2018-07-07T08:34:08.380Z,6.65
2018-07-07T08:36:43.103Z,9.78
2018-07-07T08:39:18.208Z,6.92
2018-07-07T08:41:53.048Z,7.30
2018-07-07T08:44:27.960Z,13.78
2018-07-07T08:47:03.745Z,6.75
2018-07-07T08:49:38.515Z,4.87
2018-07-07T08:52:13.261Z,8.53
2018-07-07T08:54:48.020Z,6.33
2018-07-07T08:57:22.740Z,4.95
2018-07-07T08:59:57.506Z,7.33
2018-07-07T09:02:32.224Z,8.23
2018-07-07T09:05:08.052Z,7.37
2018-07-07T09:07:43.836Z,10.88
2018-07-07T09:10:18.772Z,7.60
2018-07-07T09:12:53.913Z,9.68
2018-07-07T09:15:29.091Z,9.50
2018-07-07T09:18:03.841Z,5.42
2018-07-07T09:20:38.601Z,9.15
2018-07-07T09:23:13.338Z,6.83
2018-07-07T09:25:48.095Z,7.08
2018-07-07T09:28:22.858Z,6.17
2018-07-07T09:30:57.700Z,6.80
2018-07-07T09:33:32.623Z,5.87
2018-07-07T09:36:07.581Z,5.65
2018-07-07T09:38:41.887Z,5.40
2018-07-07T09:41:16.793Z,6.97
2018-07-07T09:43:51.544Z,6.03
2018-07-07T09:46:26.329Z,8.13
2018-07-07T09:49:01.108Z,6.15
2018-07-07T09:51:35.414Z,6.30
2018-07-07T09:54:11.114Z,8.88
2018-07-07T09:56:46.883Z,6.25
2018-07-07T09:59:21.594Z,5.72
2018-07-07T10:01:56.393Z,6.30
2018-07-07T10:04:31.260Z,7.30
2018-07-07T10:07:06.252Z,4.28
2018-07-07T10:09:40.958Z,6.05
2018-07-07T10:12:15.717Z,6.08
2018-07-07T10:14:50.464Z,6.15
2018-07-07T10:17:32.644Z,7.90
2018-07-07T10:20:07.425Z,6.83
2018-07-07T10:22:42.224Z,9.35
2018-07-07T10:25:17.082Z,6.67
2018-07-07T10:27:51.869Z,6.33
2018-07-07T10:30:26.636Z,8.43
2018-07-07T10:33:01.421Z,7.95
2018-07-07T10:35:36.145Z,6.47
2018-07-07T10:38:10.919Z,5.80
2018-07-07T10:40:45.843Z,9.65
2018-07-07T10:43:21.595Z,8.63
2018-07-07T10:45:56.477Z,5.65
2018-07-07T10:48:32.277Z,7.83
2018-07-07T10:51:07.208Z,5.20
2018-07-07T10:53:41.519Z,7.87
2018-07-07T10:56:16.650Z,9.53
2018-07-07T10:58:52.655Z,4.55
2018-07-07T11:01:27.568Z,6.90
2018-07-07T11:04:02.844Z,6.83
2018-07-07T11:06:37.570Z,6.17
2018-07-07T11:09:13.516Z,9.83
2018-07-07T11:11:48.280Z,8.03
2018-07-07T11:14:23.236Z,8.90
2018-07-07T11:16:58.056Z,10.60
2018-07-07T11:19:32.819Z,8.15
2018-07-07T11:22:08.558Z,6.42
2018-07-07T11:24:43.336Z,7.05
2018-07-07T11:27:18.094Z,9.25
2018-07-07T11:29:54.050Z,7.65
2018-07-07T11:32:28.931Z,9.63
2018-07-07T11:35:03.732Z,9.00
2018-07-07T11:37:38.551Z,6.55
2018-07-07T11:40:12.815Z,7.20
2018-07-07T11:42:48.596Z,5.03
2018-07-07T11:45:23.417Z,10.45
2018-07-07T11:47:58.164Z,8.75
2018-07-07T11:50:32.980Z,6.47
2018-07-07T11:53:07.819Z,8.75
2018-07-07T11:55:43.630Z,6.67
2018-07-07T11:58:19.376Z,5.42
2018-07-07T12:00:54.159Z,7.97
2018-07-07T12:03:28.917Z,9.53
2018-07-07T12:06:03.707Z,7.42
2018-07-07T12:08:38.937Z,7.40
2018-07-07T12:11:14.738Z,5.25
2018-07-07T12:13:49.505Z,12.70
2018-07-07T12:16:24.275Z,8.43
2018-07-07T12:18:59.044Z,8.30
2018-07-07T12:21:34.837Z,5.97
2018-07-07T12:24:09.527Z,6.35
2018-07-07T12:26:44.304Z,6.47
2018-07-07T12:29:19.071Z,4.55
2018-07-07T12:31:53.880Z,3.42
2018-07-07T12:34:28.594Z,7.95
2018-07-07T12:37:04.436Z,6.03
2018-07-07T12:39:39.197Z,8.75
2018-07-07T12:42:13.940Z,10.20
2018-07-07T12:44:48.710Z,7.62
2018-07-07T12:47:23.310Z,10.63
2018-07-07T12:49:57.564Z,9.45
2018-07-07T12:52:33.357Z,7.92
2018-07-07T12:55:08.238Z,11.08
2018-07-07T12:57:43.032Z,7.35
2018-07-07T13:00:17.752Z,9.18
2018-07-07T13:02:52.637Z,7.47
2018-07-07T13:05:27.389Z,6.30
2018-07-07T13:08:02.200Z,12.10
2018-07-07T13:10:37.309Z,12.65
2018-07-07T13:13:12.070Z,10.23
2018-07-07T13:15:46.849Z,11.60
2018-07-07T13:18:21.592Z,6.42
2018-07-07T13:20:57.775Z,10.13
2018-07-07T13:23:32.744Z,9.15
2018-07-07T13:26:06.933Z,7.50
2018-07-07T13:28:41.775Z,10.30
2018-07-07T13:31:16.504Z,10.98
2018-07-07T13:33:52.251Z,10.60
2018-07-07T13:36:27.013Z,10.38
2018-07-07T13:39:01.810Z,8.53
2018-07-07T13:41:36.536Z,9.30
2018-07-07T13:44:11.305Z,11.75
2018-07-07T13:46:46.096Z,6.35
2018-07-07T13:49:20.955Z,7.72
2018-07-07T13:51:55.696Z,5.97
2018-07-07T13:54:30.534Z,10.93
2018-07-07T13:57:05.667Z,8.63
2018-07-07T13:59:40.437Z,6.17
2018-07-07T14:02:15.201Z,12.10
2018-07-07T14:04:50.159Z,7.78
2018-07-07T14:07:25.973Z,9.88
2018-07-07T14:10:00.790Z,9.35
2018-07-07T14:12:35.034Z,6.95
2018-07-07T14:15:09.838Z,8.03
2018-07-07T14:17:45.594Z,7.42
2018-07-07T14:20:19.838Z,12.65
2018-07-07T14:22:54.686Z,5.62
2018-07-07T14:25:29.489Z,9.65
2018-07-07T14:28:04.219Z,7.78
2018-07-07T14:30:39.024Z,8.25
2018-07-07T14:33:13.738Z,8.73
2018-07-07T14:35:48.500Z,8.95
2018-07-07T14:38:31.369Z,6.67
2018-07-07T14:41:14.663Z,9.20
2018-07-07T14:43:54.535Z,9.53
2018-07-07T14:46:31.238Z,10.40
2018-07-07T14:49:06.255Z,6.87
2018-07-07T14:51:42.038Z,9.08
2018-07-07T14:54:16.756Z,8.45
2018-07-07T14:56:51.549Z,12.35
2018-07-07T14:59:25.767Z,11.55
2018-07-07T15:02:00.613Z,7.05
2018-07-07T15:04:35.369Z,8.28
2018-07-07T15:07:10.137Z,7.12
2018-07-07T15:09:44.844Z,7.70
2018-07-07T15:12:19.648Z,12.25
2018-07-07T15:14:54.363Z,4.85
2018-07-07T15:17:29.153Z,8.50
2018-07-07T15:20:03.430Z,10.53
2018-07-07T15:22:38.329Z,9.60
2018-07-07T15:25:14.210Z,10.10
2018-07-07T15:27:49.992Z,5.47
2018-07-07T15:30:25.755Z,13.78
2018-07-07T15:33:00.030Z,12.73
2018-07-07T15:35:34.740Z,8.98
2018-07-07T15:38:09.510Z,11.83
2018-07-07T15:40:44.232Z,9.13
2018-07-07T15:43:18.963Z,10.58
2018-07-07T15:45:53.759Z,12.50
2018-07-07T15:48:28.157Z,8.90
2018-07-07T15:51:02.878Z,7.75
2018-07-07T15:53:37.680Z,7.62
2018-07-07T15:56:11.954Z,7.65
2018-07-07T15:58:47.731Z,10.32
2018-07-07T16:01:22.465Z,9.40
2018-07-07T16:03:59.077Z,11.05
2018-07-07T16:06:33.801Z,8.05
2018-07-07T16:09:08.590Z,5.12
2018-07-07T16:11:43.328Z,8.45
2018-07-07T16:14:19.125Z,8.08
2018-07-07T16:16:53.847Z,8.88
2018-07-07T16:19:29.613Z,7.75
2018-07-07T16:22:04.386Z,10.63
2018-07-07T16:24:39.362Z,7.00
2018-07-07T16:27:14.102Z,5.87
2018-07-07T16:29:48.863Z,8.83
2018-07-07T16:32:23.117Z,9.63
2018-07-07T16:34:57.908Z,8.25
2018-07-07T16:37:33.009Z,7.03
2018-07-07T16:40:07.909Z,8.10
2018-07-07T16:42:42.542Z,11.40
2018-07-07T16:45:17.404Z,6.00
2018-07-07T16:48:04.761Z,8.28
2018-07-07T16:50:40.447Z,10.75
2018-07-07T16:53:21.811Z,8.63
2018-07-07T16:56:02.259Z,7.15
2018-07-07T16:58:37.270Z,10.35
2018-07-07T17:01:13.134Z,9.50
2018-07-07T17:03:47.930Z,10.30
2018-07-07T17:06:22.757Z,10.80
2018-07-07T17:08:57.267Z,10.88
2018-07-07T17:11:32.105Z,13.53
2018-07-07T17:14:07.350Z,9.98
2018-07-07T17:16:43.651Z,9.25
2018-07-07T17:19:18.469Z,7.87
2018-07-07T17:21:54.289Z,12.37
2018-07-07T17:24:30.473Z,7.72
2018-07-07T17:27:05.371Z,10.03
2018-07-07T17:29:40.216Z,11.22
2018-07-07T17:32:14.981Z,12.05
2018-07-07T17:34:49.778Z,11.75
2018-07-07T17:37:25.610Z,9.98
2018-07-07T17:40:00.459Z,9.88
2018-07-07T17:42:35.300Z,9.08
2018-07-07T17:45:10.475Z,11.22
2018-07-07T17:47:45.440Z,14.07
2018-07-07T17:50:19.684Z,11.33
2018-07-07T17:52:54.592Z,9.53
2018-07-07T17:55:28.854Z,9.40
2018-07-07T17:58:03.748Z,8.80
2018-07-07T18:00:38.476Z,8.50
2018-07-07T18:03:14.311Z,8.60
2018-07-07T18:05:49.136Z,11.55
2018-07-07T18:08:23.342Z,10.53
2018-07-07T18:10:57.698Z,11.35
2018-07-07T18:13:32.465Z,9.08
2018-07-07T18:16:07.224Z,12.90
2018-07-07T18:18:42.330Z,9.10
2018-07-07T18:21:18.085Z,8.23
2018-07-07T18:23:52.815Z,7.25
2018-07-07T18:26:27.644Z,12.43
2018-07-07T18:29:02.487Z,9.43
2018-07-07T18:31:36.747Z,10.03
2018-07-07T18:34:11.507Z,10.70
2018-07-07T18:36:46.284Z,9.00
2018-07-07T18:39:21.015Z,8.58
2018-07-07T18:41:55.855Z,11.00
2018-07-07T18:44:30.568Z,11.83
2018-07-07T18:47:05.399Z,11.35
2018-07-07T18:49:40.117Z,9.65
2018-07-07T18:52:14.874Z,9.15
2018-07-07T18:54:49.579Z,9.23
2018-07-07T18:57:25.393Z,8.53
2018-07-07T19:00:00.157Z,15.60
2018-07-07T19:02:34.942Z,11.03
2018-07-07T19:05:10.195Z,10.20
2018-07-07T19:07:44.911Z,11.85
2018-07-07T19:10:19.692Z,10.05
2018-07-07T19:12:54.484Z,9.10
2018-07-07T19:15:29.282Z,5.95
2018-07-07T19:18:04.258Z,12.10
2018-07-07T19:20:44.258Z,8.78
2018-07-07T19:23:24.256Z,15.45
2018-07-07T19:26:04.280Z,12.70
2018-07-07T19:28:39.080Z,10.32
2018-07-07T19:31:14.003Z,11.57
2018-07-07T19:33:54.811Z,7.72
2018-07-07T19:36:35.825Z,7.90
2018-07-07T19:39:10.572Z,10.18
2018-07-07T19:41:46.384Z,11.00
2018-07-07T19:44:21.258Z,11.83
2018-07-07T19:46:56.047Z,13.93
2018-07-07T19:49:30.767Z,14.05
2018-07-07T19:52:05.598Z,9.25
2018-07-07T19:54:41.324Z,10.72
2018-07-07T19:57:16.133Z,11.48
2018-07-07T19:59:50.916Z,7.25
2018-07-07T20:02:26.661Z,13.40
2018-07-07T20:05:02.436Z,13.95
2018-07-07T20:07:37.159Z,13.83
2018-07-07T20:10:12.924Z,9.58
2018-07-07T20:12:47.677Z,6.45
2018-07-07T20:15:33.296Z,14.18
2018-07-07T20:18:08.577Z,11.63
2018-07-07T20:22:00.483Z,10.08
2018-07-07T20:24:36.908Z,13.55
2018-07-07T20:27:16.864Z,13.90
2018-07-07T20:29:51.646Z,9.28
2018-07-07T20:33:02.116Z,8.40
2018-07-07T20:35:36.913Z,10.00
2018-07-07T20:38:11.652Z,7.55
2018-07-07T20:40:46.457Z,9.70
2018-07-07T20:43:21.349Z,10.88
2018-07-07T20:45:56.136Z,6.70
2018-07-07T20:48:30.865Z,8.95
2018-07-07T20:51:05.666Z,11.18
2018-07-07T20:53:40.429Z,12.80
2018-07-07T20:56:15.304Z,11.43
2018-07-07T20:58:50.184Z,9.45
2018-07-07T21:01:25.101Z,9.60
2018-07-07T21:04:00.273Z,12.70
2018-07-07T21:06:35.632Z,8.88
2018-07-07T21:09:10.412Z,7.87
2018-07-07T21:11:45.184Z,14.10
2018-07-07T21:14:19.951Z,9.50
2018-07-07T21:16:55.733Z,11.45
2018-07-07T21:19:29.979Z,9.10
2018-07-07T21:22:05.776Z,13.75
2018-07-07T21:24:40.572Z,10.50
2018-07-07T21:27:15.328Z,14.87
2018-07-07T21:29:51.116Z,9.28
2018-07-07T21:32:25.586Z,8.60
2018-07-07T21:35:00.289Z,12.73
2018-07-07T21:37:35.096Z,7.92
2018-07-07T21:40:09.862Z,13.38
2018-07-07T21:42:45.632Z,11.12
2018-07-07T21:45:20.428Z,13.60
2018-07-07T21:47:55.163Z,9.15
2018-07-07T21:50:30.928Z,10.98
2018-07-07T21:53:06.757Z,14.25
2018-07-07T21:55:58.435Z,9.30
2018-07-07T21:58:32.708Z,9.45
2018-07-07T22:01:18.025Z,8.90
2018-07-07T22:03:58.974Z,10.63
2018-07-07T22:07:41.692Z,7.70
2018-07-07T22:10:17.508Z,8.73
2018-07-07T22:12:52.293Z,20.62
2018-07-07T22:15:27.026Z,12.60
2018-07-07T22:18:02.352Z,8.80
2018-07-07T22:20:37.860Z,14.23
2018-07-07T22:23:12.639Z,7.70
2018-07-07T22:25:46.880Z,6.95
2018-07-07T22:28:22.612Z,14.25
2018-07-07T22:30:57.408Z,12.70
2018-07-07T22:33:32.177Z,15.85
2018-07-07T22:36:12.618Z,9.98
2018-07-07T22:38:52.252Z,13.05
2018-07-07T22:41:39.046Z,8.63
2018-07-07T22:44:13.758Z,16.12
2018-07-07T22:46:49.566Z,11.68
2018-07-07T22:49:25.306Z,8.63
2018-07-07T22:52:00.138Z,18.62
2018-07-07T22:54:34.933Z,14.58
2018-07-07T22:57:09.684Z,14.28
2018-07-07T22:59:45.448Z,13.75
2018-07-07T23:02:20.193Z,12.60
2018-07-07T23:04:54.968Z,12.18
2018-07-07T23:07:29.712Z,15.90
2018-07-07T23:10:03.988Z,11.68
2018-07-07T23:12:38.817Z,15.72
2018-07-07T23:15:14.571Z,14.43
2018-07-07T23:17:49.503Z,17.32
2018-07-07T23:20:26.969Z,16.23
2018-07-07T23:23:01.773Z,13.70
2018-07-07T23:25:36.511Z,13.72
2018-07-07T23:28:11.440Z,12.37
2018-07-07T23:30:46.176Z,13.53
2018-07-07T23:33:20.994Z,16.17
2018-07-07T23:35:56.905Z,16.25
2018-07-07T23:38:32.688Z,17.75
2018-07-07T23:41:07.420Z,15.72
2018-07-07T23:43:42.815Z,18.75
2018-07-07T23:46:17.742Z,15.28
2018-07-07T23:48:52.612Z,19.67
2018-07-07T23:51:27.358Z,15.95
2018-07-07T23:54:02.178Z,14.30
2018-07-07T23:56:37.914Z,14.95
2018-07-07T23:59:14.121Z,19.77
